Kittitas — WYQ9302 — position and weather

sailwx.info

Track history (hours):
 
Tides and Currents Weather Stations Pressure Air Temp Water Temp Dewpoint Dewpoint Depression Visibility Wind Speed Wind Dir Waves Ship Positions

Kittitas

Owner: WASHINGTON, STATE OF; Dept. of Transportation, OLYMPIA, WA. More information available from US FCC via Universal Licensing System and Coast Guard Vessel Documentation Center.

Last reported at 2014-Oct-22 02:33 UTC. Time now 2014-Oct-22 03:11 UTC.
Position N 47°58' W 122°20'.

Length 100 m; draft 4.7 m.

Type: Passenger vessel. MMSI: 366772960.

Date/timePositionNaut miles runAvg speedWind from/ knotsBaromVisibWave heightAir tempDewpointWater temp
2014-Oct-22 02:33N 47°58' W 122°20'0 0.1
2014-Oct-22 01:33N 47°58' W 122°20'0 0.1
2014-Oct-22 00:33N 47°58' W 122°21'0 0.0
2014-Oct-21 23:33N 47°58' W 122°20'1 0.5
2014-Oct-21 22:37N 47°58' W 122°20'112.4
2014-Oct-21 22:33N 47°58' W 122°21'1 2.3
2014-Oct-21 22:07N 47°58' W 122°20'1 1.3
2014-Oct-21 21:33N 47°58' W 122°20'010.0
2014-Oct-21 21:31N 47°58' W 122°21'1 0.6
2014-Oct-21 20:33N 47°58' W 122°20'0 1.2
2014-Oct-21 20:11N 47°58' W 122°21'0 0.1
2014-Oct-21 19:32N 47°58' W 122°21'1 2.1
2014-Oct-21 19:06N 47°58' W 122°20'1 1.6
2014-Oct-21 18:32N 47°58' W 122°21'011.3
2014-Oct-21 18:31N 47°58' W 122°21'0 0.2
2014-Oct-21 17:32N 47°58' W 122°21'011.3
2014-Oct-21 17:31N 47°58' W 122°21'0 0.1
2014-Oct-21 16:33N 47°58' W 122°21'0 1.0
2014-Oct-21 16:16N 47°58' W 122°21'0 0.4
2014-Oct-21 15:33N 47°58' W 122°21'0 0.0
2014-Oct-21 14:33N 47°58' W 122°21'2 1.7
2014-Oct-21 13:40N 47°57' W 122°19'213.2
2014-Oct-21 13:32N 47°58' W 122°21'0 0.3
2014-Oct-21 12:33N 47°58' W 122°20'2 3.4
2014-Oct-21 12:00N 47°57' W 122°18'2 4.3
2014-Oct-21 11:26N 47°59' W 122°21'0 0.3
2014-Oct-21 11:25N 47°59' W 122°21'0 0.0
2014-Oct-21 10:20N 47°59' W 122°21'0 0.0
2014-Oct-21 09:20N 47°59' W 122°21'0 0.0
2014-Oct-21 06:27N 47°59' W 122°21'0 0.0
2014-Oct-21 05:22N 47°59' W 122°21'0 0.0
2014-Oct-21 05:04N 47°59' W 122°21'0 0.0
2014-Oct-21 04:28N 47°59' W 122°21'0 0.5
2014-Oct-21 03:33N 47°58' W 122°20'1 0.6
2014-Oct-21 02:35N 47°58' W 122°20'116.8
2014-Oct-21 02:33N 47°58' W 122°21'0 0.0
2014-Oct-21 01:33N 47°58' W 122°20'0 0.1
2014-Oct-21 00:34N 47°58' W 122°20'0 0.0
2014-Oct-20 23:33N 47°58' W 122°20'0 0.2
2014-Oct-20 22:33N 47°58' W 122°21'0 0.9
2014-Oct-20 22:12N 47°58' W 122°21'0 0.2
2014-Oct-20 21:33N 47°58' W 122°21'0 0.4
2014-Oct-20 20:34N 47°58' W 122°20'018.4
2014-Oct-20 20:33N 47°58' W 122°21'0 0.1
2014-Oct-20 19:33N 47°58' W 122°20'0 0.1
2014-Oct-20 18:33N 47°58' W 122°20'0 0.2
2014-Oct-20 17:33N 47°58' W 122°21'0 0.1
2014-Oct-20 16:33N 47°58' W 122°21'0 0.1
2014-Oct-20 15:33N 47°58' W 122°21'0 0.1
2014-Oct-20 14:33N 47°58' W 122°21'0 0.0
2014-Oct-20 13:33N 47°58' W 122°21'0 0.1
2014-Oct-20 12:32N 47°58' W 122°21'0 0.2
2014-Oct-20 11:33N 47°58' W 122°21'0 0.0
2014-Oct-20 10:26N 47°58' W 122°21'0 0.0
2014-Oct-20 08:24N 47°58' W 122°21'1 0.7
2014-Oct-20 07:33N 47°58' W 122°20'0 0.2
2014-Oct-20 06:33N 47°58' W 122°21'0 0.0
2014-Oct-20 05:33N 47°58' W 122°20'0 0.1
2014-Oct-20 04:33N 47°58' W 122°20'1 1.6
2014-Oct-20 04:08N 47°58' W 122°20'1 1.5
2014-Oct-20 03:33N 47°58' W 122°21'0 0.1
2014-Oct-20 02:33N 47°58' W 122°21'0 0.0
2014-Oct-20 01:33N 47°58' W 122°21'0 7.9
2014-Oct-20 01:32N 47°58' W 122°21'0 0.2
2014-Oct-20 00:33N 47°58' W 122°21'0 0.8
2014-Oct-20 00:13N 47°58' W 122°21'0 0.1
2014-Oct-19 23:33N 47°58' W 122°21'1 0.9
2014-Oct-19 22:37N 47°58' W 122°20'111.3
2014-Oct-19 22:33N 47°58' W 122°21'0 1.6
2014-Oct-19 22:33N 47°58' W 122°21'0 0.1
2014-Oct-19 21:33N 47°58' W 122°21'0 8.7
2014-Oct-19 21:32N 47°58' W 122°21'0 0.1
2014-Oct-19 20:33N 47°58' W 122°21'0 0.1
2014-Oct-19 19:33N 47°58' W 122°21'0 0.2
2014-Oct-19 18:33N 47°58' W 122°21'0 0.0
2014-Oct-19 18:33N 47°58' W 122°21'0 0.1
2014-Oct-19 17:33N 47°58' W 122°21'2 3.4
2014-Oct-19 16:57N 47°57' W 122°18'2 5.3
2014-Oct-19 16:33N 47°58' W 122°21'0 0.1
2014-Oct-19 15:33N 47°58' W 122°21'1 2.0
2014-Oct-19 15:06N 47°58' W 122°20'1 1.8
2014-Oct-19 14:33N 47°58' W 122°21'0 1.1
2014-Oct-19 14:11N 47°58' W 122°21'0 0.3
2014-Oct-19 13:33N 47°58' W 122°20'0 3.8
2014-Oct-19 13:26N 47°58' W 122°21'0 0.2
2014-Oct-19 12:32N 47°58' W 122°21'0 0.0
2014-Oct-19 08:22N 47°58' W 122°21'1 1.0
2014-Oct-19 07:33N 47°58' W 122°20'0 0.2
2014-Oct-19 06:35N 47°58' W 122°20'0 9.2
2014-Oct-19 06:32N 47°58' W 122°21'1 2.1
2014-Oct-19 06:09N 47°58' W 122°20'1 1.3
2014-Oct-19 05:33N 47°58' W 122°21'0 0.2
2014-Oct-19 04:33N 47°58' W 122°21'0 0.5
2014-Oct-19 03:35N 47°58' W 122°20'112.9
2014-Oct-19 03:32N 47°58' W 122°21'0 0.0
2014-Oct-19 02:32N 47°58' W 122°21'2 3.0
2014-Oct-19 01:49N 47°57' W 122°18'2 7.3
2014-Oct-19 01:33N 47°58' W 122°20'0 1.4
2014-Oct-19 01:14N 47°58' W 122°21'0 0.3
2014-Oct-19 00:33N 47°58' W 122°21'0 0.0
2014-Oct-18 23:33N 47°58' W 122°21'1 1.7
2014-Oct-18 23:09N 47°58' W 122°20'1 1.3
2014-Oct-18 22:33N 47°58' W 122°21'0 0.1
2014-Oct-18 21:33N 47°58' W 122°21'0 0.0
2014-Oct-18 20:34N 47°58' W 122°21'013.7
2014-Oct-18 20:33N 47°58' W 122°21'2 4.2
2014-Oct-18 20:03N 47°57' W 122°18'2 3.5
2014-Oct-18 19:33N 47°58' W 122°20'0 0.0
2014-Oct-18 18:33N 47°58' W 122°20'0 0.1
2014-Oct-18 17:33N 47°58' W 122°21'0 0.6
2014-Oct-18 17:13N 47°58' W 122°21'0 0.5
2014-Oct-18 16:33N 47°58' W 122°20'2 3.1
2014-Oct-18 16:03N 47°57' W 122°19'1 3.0
2014-Oct-18 15:33N 47°58' W 122°20'0 0.0
2014-Oct-18 14:33N 47°58' W 122°20'010.6
2014-Oct-18 14:33N 47°58' W 122°21'0 0.1
2014-Oct-18 13:33N 47°58' W 122°21'0 0.2
2014-Oct-18 12:33N 47°58' W 122°20'1 0.5
2014-Oct-18 11:22N 47°58' W 122°21'0 0.0
2014-Oct-18 10:32N 47°58' W 122°21'0 0.0
2014-Oct-18 09:28N 47°58' W 122°21'0 0.0
2014-Oct-18 08:32N 47°58' W 122°21'1 2.5
2014-Oct-18 08:12N 47°58' W 122°20'0 0.2
2014-Oct-18 07:34N 47°58' W 122°20'0 0.4
2014-Oct-18 06:32N 47°58' W 122°21'0 0.5
2014-Oct-18 05:33N 47°58' W 122°20'0 0.5
2014-Oct-18 04:33N 47°58' W 122°21'0 8.7
2014-Oct-18 04:32N 47°58' W 122°21'0 0.5
2014-Oct-18 03:33N 47°58' W 122°20'1 0.6
2014-Oct-18 02:36N 47°58' W 122°20'113.5
2014-Oct-18 02:33N 47°58' W 122°20'010.4
2014-Oct-18 02:32N 47°58' W 122°21'0 0.1
2014-Oct-18 01:33N 47°58' W 122°21'0 9.3
2014-Oct-18 01:32N 47°58' W 122°21'0 0.1
2014-Oct-18 00:33N 47°58' W 122°21'1 2.3
2014-Oct-18 00:12N 47°58' W 122°20'1 1.6
2014-Oct-17 23:33N 47°58' W 122°21'1 2.7
2014-Oct-17 23:11N 47°58' W 122°20'1 1.4
2014-Oct-17 22:33N 47°58' W 122°21'0 5.1
2014-Oct-17 22:32N 47°58' W 122°21'1 0.5
2014-Oct-17 21:33N 47°58' W 122°20'0 0.7
2014-Oct-17 21:11N 47°58' W 122°21'0 0.3
2014-Oct-17 20:33N 47°58' W 122°20'0 0.0
2014-Oct-17 19:33N 47°58' W 122°20'0 0.1
2014-Oct-17 18:33N 47°58' W 122°21'0 0.7
2014-Oct-17 18:11N 47°58' W 122°21'0 0.6
2014-Oct-17 17:33N 47°58' W 122°20'0 0.2
2014-Oct-17 16:33N 47°58' W 122°21'1 2.1
2014-Oct-17 16:05N 47°57' W 122°20'1 1.7
2014-Oct-17 15:33N 47°58' W 122°21'0 0.1
2014-Oct-17 14:33N 47°58' W 122°21'0 0.1
2014-Oct-17 13:33N 47°58' W 122°21'0 0.3
2014-Oct-17 12:33N 47°58' W 122°20'1 0.6
2014-Oct-17 11:33N 47°59' W 122°21'0 0.0
2014-Oct-17 10:33N 47°59' W 122°21'0 0.0
2014-Oct-17 09:33N 47°59' W 122°21'0 0.0
2014-Oct-17 08:33N 47°59' W 122°21'0 0.0
2014-Oct-17 06:57N 47°59' W 122°21'0 0.1
2014-Oct-17 06:31N 47°59' W 122°21'0 0.0
2014-Oct-17 05:33N 47°59' W 122°21'0 0.0
2014-Oct-17 04:33N 47°59' W 122°21'0 0.5
2014-Oct-17 04:29N 47°59' W 122°21'0 0.5
2014-Oct-17 03:33N 47°58' W 122°21'0 0.0
2014-Oct-17 02:33N 47°58' W 122°21'0 0.1
2014-Oct-17 01:33N 47°58' W 122°20'1 1.6
2014-Oct-17 01:09N 47°58' W 122°20'1 1.0
2014-Oct-17 00:33N 47°58' W 122°20'0 1.1
2014-Oct-17 00:09N 47°58' W 122°20'1 1.0
2014-Oct-16 23:33N 47°58' W 122°21'0 0.6
2014-Oct-16 23:13N 47°58' W 122°21'0 0.4
2014-Oct-16 22:33N 47°58' W 122°21'0 0.4
2014-Oct-16 22:14N 47°58' W 122°21'0 0.4
2014-Oct-16 21:33N 47°58' W 122°21'1 1.7
2014-Oct-16 21:08N 47°58' W 122°20'1 1.2
2014-Oct-16 20:33N 47°58' W 122°21'0 0.1
2014-Oct-16 19:33N 47°58' W 122°21'0 9.0
2014-Oct-16 19:33N 47°58' W 122°21'0 0.4
2014-Oct-16 18:33N 47°58' W 122°20'0 0.3
2014-Oct-16 17:32N 47°58' W 122°21'0 0.3
2014-Oct-16 16:33N 47°58' W 122°20'013.6
2014-Oct-16 16:33N 47°58' W 122°20'0 0.1
2014-Oct-16 15:34N 47°58' W 122°20'0 0.1
2014-Oct-16 14:33N 47°58' W 122°21'0 0.0
2014-Oct-16 13:33N 47°58' W 122°21'010.9
2014-Oct-16 13:32N 47°58' W 122°21'0 0.4
2014-Oct-16 12:33N 47°58' W 122°20'015.2
2014-Oct-16 12:32N 47°58' W 122°21'0 0.2
2014-Oct-16 11:33N 47°58' W 122°21'0 0.0
2014-Oct-16 10:20N 47°58' W 122°21'0 0.0
2014-Oct-16 08:29N 47°58' W 122°21'1 2.8
2014-Oct-16 08:12N 47°58' W 122°20'0 0.2
2014-Oct-16 07:33N 47°58' W 122°20'1 1.7
2014-Oct-16 06:41N 47°57' W 122°18'212.5
2014-Oct-16 06:33N 47°58' W 122°21'0 1.1
2014-Oct-16 06:07N 47°58' W 122°20'0 0.8
2014-Oct-16 05:33N 47°58' W 122°20'0 0.2
2014-Oct-16 04:33N 47°58' W 122°20'0 0.6
2014-Oct-16 04:07N 47°58' W 122°20'1 1.1
2014-Oct-16 03:33N 47°58' W 122°21'1 1.7
2014-Oct-16 03:06N 47°58' W 122°20'1 1.1
2014-Oct-16 02:33N 47°58' W 122°20'0 1.2
2014-Oct-16 02:11N 47°58' W 122°21'0 0.3
2014-Oct-16 01:33N 47°58' W 122°21'0 0.6
2014-Oct-16 01:12N 47°58' W 122°21'0 0.3
2014-Oct-16 00:33N 47°58' W 122°21'1 2.2
2014-Oct-16 00:07N 47°58' W 122°20'1 1.5
2014-Oct-15 23:33N 47°58' W 122°21'0 8.9
2014-Oct-15 23:31N 47°58' W 122°21'1 0.5
2014-Oct-15 22:34N 47°58' W 122°20'011.3
2014-Oct-15 22:31N 47°58' W 122°21'0 0.2
2014-Oct-15 21:33N 47°58' W 122°21'1 0.6
2014-Oct-15 20:36N 47°58' W 122°20'112.8
2014-Oct-15 20:33N 47°58' W 122°21'0 8.0
2014-Oct-15 20:31N 47°58' W 122°21'0 0.4
2014-Oct-15 19:33N 47°58' W 122°20'011.1
2014-Oct-15 19:31N 47°58' W 122°21'0 0.4
2014-Oct-15 18:33N 47°58' W 122°20'0 1.4
2014-Oct-15 18:15N 47°58' W 122°21'0 0.7
2014-Oct-15 17:33N 47°58' W 122°20'0 0.1
2014-Oct-15 16:33N 47°58' W 122°20'0 3.0
2014-Oct-15 16:25N 47°58' W 122°21'0 0.4
2014-Oct-15 15:33N 47°58' W 122°21'0 0.0
2014-Oct-15 14:33N 47°58' W 122°21'0 0.5
2014-Oct-15 14:10N 47°58' W 122°21'0 0.3
2014-Oct-15 13:33N 47°58' W 122°21'2 2.4
2014-Oct-15 12:44N 47°57' W 122°18'210.8
2014-Oct-15 12:33N 47°58' W 122°20'1 0.5
2014-Oct-15 11:33N 47°59' W 122°21'0 0.0
2014-Oct-15 11:19N 47°59' W 122°21'0 0.0
2014-Oct-15 10:29N 47°59' W 122°21'0 0.0
2014-Oct-15 07:54N 47°59' W 122°21'0 0.1
2014-Oct-15 07:26N 47°59' W 122°21'0 0.1
2014-Oct-15 06:43N 47°59' W 122°21'0 0.2
2014-Oct-15 06:28N 47°59' W 122°21'0 0.0
2014-Oct-15 06:28N 47°59' W 122°21'0 0.1
2014-Oct-15 05:54N 47°59' W 122°21'0 0.0
2014-Oct-15 05:33N 47°59' W 122°21'0 0.0
2014-Oct-15 04:29N 47°59' W 122°21'0 0.3
2014-Oct-15 03:33N 47°58' W 122°21'011.3
2014-Oct-15 03:33N 47°58' W 122°21'0 0.4
2014-Oct-15 02:33N 47°58' W 122°20'0 0.3
2014-Oct-15 01:33N 47°58' W 122°21'0 0.1
2014-Oct-15 01:12N 47°58' W 122°21'0 0.2
2014-Oct-15 00:33N 47°58' W 122°21'1 2.1
2014-Oct-15 00:08N 47°58' W 122°20'1 0.9
2014-Oct-14 23:33N 47°58' W 122°20'012.9
2014-Oct-14 23:33N 47°58' W 122°21'0 0.2
2014-Oct-14 22:33N 47°58' W 122°21'0 0.0
2014-Oct-14 21:33N 47°58' W 122°21'0 0.0
2014-Oct-14 20:31N 47°58' W 122°21'0 0.2
2014-Oct-14 19:33N 47°58' W 122°20'0 0.1
2014-Oct-14 18:33N 47°58' W 122°20'0 0.4
2014-Oct-14 17:33N 47°58' W 122°21'0 0.4
2014-Oct-14 16:33N 47°58' W 122°20'0 0.3
2014-Oct-14 15:33N 47°58' W 122°21'0 0.0
2014-Oct-14 14:33N 47°58' W 122°21'0 0.1
2014-Oct-14 13:33N 47°58' W 122°21'0 0.4
2014-Oct-14 12:34N 47°58' W 122°20'018.3
2014-Oct-14 12:33N 47°58' W 122°20'0 0.4
2014-Oct-14 12:14N 47°58' W 122°21'0 0.7
2014-Oct-14 11:33N 47°59' W 122°21'0 0.0
2014-Oct-14 10:29N 47°59' W 122°21'0 0.0
2014-Oct-14 09:33N 47°59' W 122°21'0 0.0
2014-Oct-14 08:31N 47°59' W 122°21'0 0.0
2014-Oct-14 07:33N 47°59' W 122°21'0 0.0
2014-Oct-14 06:34N 47°59' W 122°21'0 0.1
2014-Oct-14 06:14N 47°59' W 122°21'0 0.0
2014-Oct-14 06:03N 47°59' W 122°21'0 0.1
2014-Oct-14 05:28N 47°59' W 122°21'0 0.0
2014-Oct-14 04:32N 47°59' W 122°21'0 0.4
2014-Oct-14 03:33N 47°58' W 122°21'0 0.0
2014-Oct-14 03:33N 47°58' W 122°21'0 0.0
2014-Oct-14 02:33N 47°58' W 122°21'0 0.1
2014-Oct-14 01:33N 47°58' W 122°20'0 0.0
2014-Oct-14 00:33N 47°58' W 122°20'010.6
2014-Oct-14 00:33N 47°58' W 122°20'0 0.0
2014-Oct-13 23:33N 47°58' W 122°20'0 3.2
2014-Oct-13 23:33N 47°58' W 122°20'0 0.1
2014-Oct-13 22:33N 47°58' W 122°21'0 0.4
2014-Oct-13 22:11N 47°58' W 122°21'0 0.2
2014-Oct-13 21:33N 47°58' W 122°20'0 0.7
2014-Oct-13 21:11N 47°58' W 122°21'0 0.4
2014-Oct-13 20:33N 47°58' W 122°20'0 9.6
2014-Oct-13 20:31N 47°58' W 122°21'0 0.5
2014-Oct-13 19:34N 47°58' W 122°20'0 0.9
2014-Oct-13 19:11N 47°58' W 122°21'0 0.8
2014-Oct-13 18:33N 47°58' W 122°20'1 1.4
2014-Oct-13 18:11N 47°58' W 122°21'0 0.4
2014-Oct-13 17:33N 47°58' W 122°21'0 0.0
2014-Oct-13 16:35N 47°58' W 122°21'011.5
2014-Oct-13 16:33N 47°58' W 122°21'0 1.5
2014-Oct-13 16:14N 47°58' W 122°20'0 0.5
2014-Oct-13 15:33N 47°58' W 122°21'0 0.2
2014-Oct-13 14:33N 47°58' W 122°21'0 0.1
2014-Oct-13 13:33N 47°58' W 122°20'0 0.4
2014-Oct-13 13:09N 47°58' W 122°21'0 0.2
2014-Oct-13 12:33N 47°58' W 122°20'0 0.9
2014-Oct-13 12:14N 47°58' W 122°21'0 0.3
2014-Oct-13 11:33N 47°58' W 122°21'0 0.0
2014-Oct-13 10:19N 47°58' W 122°21'0 0.0
2014-Oct-13 09:58N 47°58' W 122°21'0 0.0
2014-Oct-13 09:28N 47°58' W 122°21'0 0.0
2014-Oct-13 08:32N 47°58' W 122°21'0 0.5
2014-Oct-13 07:33N 47°58' W 122°20'0 0.0
2014-Oct-13 06:33N 47°58' W 122°20'0 0.0
2014-Oct-13 06:33N 47°58' W 122°20'2 2.5
2014-Oct-13 05:48N 47°57' W 122°18'2 8.1
2014-Oct-13 05:33N 47°58' W 122°21'0 0.5
2014-Oct-13 04:33N 47°58' W 122°20'0 0.3
2014-Oct-13 03:34N 47°58' W 122°20'0 0.0
2014-Oct-13 02:33N 47°58' W 122°20'0 0.2
2014-Oct-13 01:33N 47°58' W 122°21'0 0.1
2014-Oct-13 00:33N 47°58' W 122°21'0 0.5
2014-Oct-12 23:35N 47°58' W 122°20'112.7
2014-Oct-12 23:32N 47°58' W 122°21'0 0.0
2014-Oct-12 22:33N 47°58' W 122°21'0 0.1
2014-Oct-12 21:33N 47°58' W 122°21'0 0.4
2014-Oct-12 20:33N 47°58' W 122°20'0 0.8
2014-Oct-12 20:08N 47°58' W 122°21'0 0.2
2014-Oct-12 19:33N 47°58' W 122°21'0 0.8
2014-Oct-12 19:13N 47°58' W 122°21'1 0.9
2014-Oct-12 18:33N 47°58' W 122°20'0 0.8
2014-Oct-12 18:07N 47°58' W 122°20'0 0.6
2014-Oct-12 17:33N 47°58' W 122°20'011.9
2014-Oct-12 17:32N 47°58' W 122°20'0 0.4
2014-Oct-12 16:33N 47°58' W 122°20'1 2.4
2014-Oct-12 15:57N 47°57' W 122°18'2 5.3
2014-Oct-12 15:33N 47°58' W 122°21'0 8.7
2014-Oct-12 15:32N 47°58' W 122°21'1 0.6
2014-Oct-12 14:33N 47°58' W 122°20'115.0
2014-Oct-12 14:31N 47°58' W 122°21'0 0.2
2014-Oct-12 13:33N 47°58' W 122°21'2 2.1
2014-Oct-12 12:41N 47°57' W 122°18'214.8
2014-Oct-12 12:33N 47°58' W 122°21'0 0.1
2014-Oct-12 11:16N 47°58' W 122°21'0 0.0
2014-Oct-12 10:24N 47°58' W 122°21'0 0.0
2014-Oct-12 09:21N 47°58' W 122°21'0 0.1
2014-Oct-12 09:14N 47°58' W 122°21'0 0.0
2014-Oct-12 08:33N 47°58' W 122°21'1 1.6
2014-Oct-12 08:14N 47°58' W 122°20'0 0.3
2014-Oct-12 07:33N 47°58' W 122°21'0 0.1
2014-Oct-12 06:33N 47°58' W 122°21'0 0.1
2014-Oct-12 05:33N 47°58' W 122°21'0 0.1
2014-Oct-12 04:32N 47°58' W 122°21'0 0.6
2014-Oct-12 04:09N 47°58' W 122°20'0 0.6
2014-Oct-12 03:33N 47°58' W 122°21'0 0.1
2014-Oct-12 02:33N 47°58' W 122°21'  
Track history (hours):
 
Tides and Currents Weather Stations Pressure Air Temp Water Temp Dewpoint Dewpoint Depression Visibility Wind Speed Wind Dir Waves Ship Positions

Kittitas

Owner: WASHINGTON, STATE OF; Dept. of Transportation, OLYMPIA, WA. More information available from US FCC via Universal Licensing System and Coast Guard Vessel Documentation Center.

Last reported at 2014-Oct-22 02:33 UTC. Time now 2014-Oct-22 03:11 UTC.
Position N 47°58' W 122°20'.

Length 100 m; draft 4.7 m.

Type: Passenger vessel. MMSI: 366772960.

Date/timePositionNaut miles runAvg speedWind from/ knotsBaromVisibWave heightAir tempDewpointWater temp
2014-Oct-22 02:33N 47°58' W 122°20'0 0.1
2014-Oct-22 01:33N 47°58' W 122°20'0 0.1
2014-Oct-22 00:33N 47°58' W 122°21'0 0.0
2014-Oct-21 23:33N 47°58' W 122°20'1 0.5
2014-Oct-21 22:37N 47°58' W 122°20'112.4
2014-Oct-21 22:33N 47°58' W 122°21'1 2.3
2014-Oct-21 22:07N 47°58' W 122°20'1 1.3
2014-Oct-21 21:33N 47°58' W 122°20'010.0
2014-Oct-21 21:31N 47°58' W 122°21'1 0.6
2014-Oct-21 20:33N 47°58' W 122°20'0 1.2
2014-Oct-21 20:11N 47°58' W 122°21'0 0.1
2014-Oct-21 19:32N 47°58' W 122°21'1 2.1
2014-Oct-21 19:06N 47°58' W 122°20'1 1.6
2014-Oct-21 18:32N 47°58' W 122°21'011.3
2014-Oct-21 18:31N 47°58' W 122°21'0 0.2
2014-Oct-21 17:32N 47°58' W 122°21'011.3
2014-Oct-21 17:31N 47°58' W 122°21'0 0.1
2014-Oct-21 16:33N 47°58' W 122°21'0 1.0
2014-Oct-21 16:16N 47°58' W 122°21'0 0.4
2014-Oct-21 15:33N 47°58' W 122°21'0 0.0
2014-Oct-21 14:33N 47°58' W 122°21'2 1.7
2014-Oct-21 13:40N 47°57' W 122°19'213.2
2014-Oct-21 13:32N 47°58' W 122°21'0 0.3
2014-Oct-21 12:33N 47°58' W 122°20'2 3.4
2014-Oct-21 12:00N 47°57' W 122°18'2 4.3
2014-Oct-21 11:26N 47°59' W 122°21'0 0.3
2014-Oct-21 11:25N 47°59' W 122°21'0 0.0
2014-Oct-21 10:20N 47°59' W 122°21'0 0.0
2014-Oct-21 09:20N 47°59' W 122°21'0 0.0
2014-Oct-21 06:27N 47°59' W 122°21'0 0.0
2014-Oct-21 05:22N 47°59' W 122°21'0 0.0
2014-Oct-21 05:04N 47°59' W 122°21'0 0.0
2014-Oct-21 04:28N 47°59' W 122°21'0 0.5
2014-Oct-21 03:33N 47°58' W 122°20'1 0.6
2014-Oct-21 02:35N 47°58' W 122°20'116.8
2014-Oct-21 02:33N 47°58' W 122°21'0 0.0
2014-Oct-21 01:33N 47°58' W 122°20'0 0.1
2014-Oct-21 00:34N 47°58' W 122°20'0 0.0
2014-Oct-20 23:33N 47°58' W 122°20'0 0.2
2014-Oct-20 22:33N 47°58' W 122°21'0 0.9
2014-Oct-20 22:12N 47°58' W 122°21'0 0.2
2014-Oct-20 21:33N 47°58' W 122°21'0 0.4
2014-Oct-20 20:34N 47°58' W 122°20'018.4
2014-Oct-20 20:33N 47°58' W 122°21'0 0.1
2014-Oct-20 19:33N 47°58' W 122°20'0 0.1
2014-Oct-20 18:33N 47°58' W 122°20'0 0.2
2014-Oct-20 17:33N 47°58' W 122°21'0 0.1
2014-Oct-20 16:33N 47°58' W 122°21'0 0.1
2014-Oct-20 15:33N 47°58' W 122°21'0 0.1
2014-Oct-20 14:33N 47°58' W 122°21'0 0.0
2014-Oct-20 13:33N 47°58' W 122°21'0 0.1
2014-Oct-20 12:32N 47°58' W 122°21'0 0.2
2014-Oct-20 11:33N 47°58' W 122°21'0 0.0
2014-Oct-20 10:26N 47°58' W 122°21'0 0.0
2014-Oct-20 08:24N 47°58' W 122°21'1 0.7
2014-Oct-20 07:33N 47°58' W 122°20'0 0.2
2014-Oct-20 06:33N 47°58' W 122°21'0 0.0
2014-Oct-20 05:33N 47°58' W 122°20'0 0.1
2014-Oct-20 04:33N 47°58' W 122°20'1 1.6
2014-Oct-20 04:08N 47°58' W 122°20'1 1.5
2014-Oct-20 03:33N 47°58' W 122°21'0 0.1
2014-Oct-20 02:33N 47°58' W 122°21'0 0.0
2014-Oct-20 01:33N 47°58' W 122°21'0 7.9
2014-Oct-20 01:32N 47°58' W 122°21'0 0.2
2014-Oct-20 00:33N 47°58' W 122°21'0 0.8
2014-Oct-20 00:13N 47°58' W 122°21'0 0.1
2014-Oct-19 23:33N 47°58' W 122°21'1 0.9
2014-Oct-19 22:37N 47°58' W 122°20'111.3
2014-Oct-19 22:33N 47°58' W 122°21'0 1.6
2014-Oct-19 22:33N 47°58' W 122°21'0 0.1
2014-Oct-19 21:33N 47°58' W 122°21'0 8.7
2014-Oct-19 21:32N 47°58' W 122°21'0 0.1
2014-Oct-19 20:33N 47°58' W 122°21'0 0.1
2014-Oct-19 19:33N 47°58' W 122°21'0 0.2
2014-Oct-19 18:33N 47°58' W 122°21'0 0.0
2014-Oct-19 18:33N 47°58' W 122°21'0 0.1
2014-Oct-19 17:33N 47°58' W 122°21'2 3.4
2014-Oct-19 16:57N 47°57' W 122°18'2 5.3
2014-Oct-19 16:33N 47°58' W 122°21'0 0.1
2014-Oct-19 15:33N 47°58' W 122°21'1 2.0
2014-Oct-19 15:06N 47°58' W 122°20'1 1.8
2014-Oct-19 14:33N 47°58' W 122°21'0 1.1
2014-Oct-19 14:11N 47°58' W 122°21'0 0.3
2014-Oct-19 13:33N 47°58' W 122°20'0 3.8
2014-Oct-19 13:26N 47°58' W 122°21'0 0.2
2014-Oct-19 12:32N 47°58' W 122°21'0 0.0
2014-Oct-19 08:22N 47°58' W 122°21'1 1.0
2014-Oct-19 07:33N 47°58' W 122°20'0 0.2
2014-Oct-19 06:35N 47°58' W 122°20'0 9.2
2014-Oct-19 06:32N 47°58' W 122°21'1 2.1
2014-Oct-19 06:09N 47°58' W 122°20'1 1.3
2014-Oct-19 05:33N 47°58' W 122°21'0 0.2
2014-Oct-19 04:33N 47°58' W 122°21'0 0.5
2014-Oct-19 03:35N 47°58' W 122°20'112.9
2014-Oct-19 03:32N 47°58' W 122°21'0 0.0
2014-Oct-19 02:32N 47°58' W 122°21'2 3.0
2014-Oct-19 01:49N 47°57' W 122°18'2 7.3
2014-Oct-19 01:33N 47°58' W 122°20'0 1.4
2014-Oct-19 01:14N 47°58' W 122°21'0 0.3
2014-Oct-19 00:33N 47°58' W 122°21'0 0.0
2014-Oct-18 23:33N 47°58' W 122°21'1 1.7
2014-Oct-18 23:09N 47°58' W 122°20'1 1.3
2014-Oct-18 22:33N 47°58' W 122°21'0 0.1
2014-Oct-18 21:33N 47°58' W 122°21'0 0.0
2014-Oct-18 20:34N 47°58' W 122°21'013.7
2014-Oct-18 20:33N 47°58' W 122°21'2 4.2
2014-Oct-18 20:03N 47°57' W 122°18'2 3.5
2014-Oct-18 19:33N 47°58' W 122°20'0 0.0
2014-Oct-18 18:33N 47°58' W 122°20'0 0.1
2014-Oct-18 17:33N 47°58' W 122°21'0 0.6
2014-Oct-18 17:13N 47°58' W 122°21'0 0.5
2014-Oct-18 16:33N 47°58' W 122°20'2 3.1
2014-Oct-18 16:03N 47°57' W 122°19'1 3.0
2014-Oct-18 15:33N 47°58' W 122°20'0 0.0
2014-Oct-18 14:33N 47°58' W 122°20'010.6
2014-Oct-18 14:33N 47°58' W 122°21'0 0.1
2014-Oct-18 13:33N 47°58' W 122°21'0 0.2
2014-Oct-18 12:33N 47°58' W 122°20'1 0.5
2014-Oct-18 11:22N 47°58' W 122°21'0 0.0
2014-Oct-18 10:32N 47°58' W 122°21'0 0.0
2014-Oct-18 09:28N 47°58' W 122°21'0 0.0
2014-Oct-18 08:32N 47°58' W 122°21'1 2.5
2014-Oct-18 08:12N 47°58' W 122°20'0 0.2
2014-Oct-18 07:34N 47°58' W 122°20'0 0.4
2014-Oct-18 06:32N 47°58' W 122°21'0 0.5
2014-Oct-18 05:33N 47°58' W 122°20'0 0.5
2014-Oct-18 04:33N 47°58' W 122°21'0 8.7
2014-Oct-18 04:32N 47°58' W 122°21'0 0.5
2014-Oct-18 03:33N 47°58' W 122°20'1 0.6
2014-Oct-18 02:36N 47°58' W 122°20'113.5
2014-Oct-18 02:33N 47°58' W 122°20'010.4
2014-Oct-18 02:32N 47°58' W 122°21'0 0.1
2014-Oct-18 01:33N 47°58' W 122°21'0 9.3
2014-Oct-18 01:32N 47°58' W 122°21'0 0.1
2014-Oct-18 00:33N 47°58' W 122°21'1 2.3
2014-Oct-18 00:12N 47°58' W 122°20'1 1.6
2014-Oct-17 23:33N 47°58' W 122°21'1 2.7
2014-Oct-17 23:11N 47°58' W 122°20'1 1.4
2014-Oct-17 22:33N 47°58' W 122°21'0 5.1
2014-Oct-17 22:32N 47°58' W 122°21'1 0.5
2014-Oct-17 21:33N 47°58' W 122°20'0 0.7
2014-Oct-17 21:11N 47°58' W 122°21'0 0.3
2014-Oct-17 20:33N 47°58' W 122°20'0 0.0
2014-Oct-17 19:33N 47°58' W 122°20'0 0.1
2014-Oct-17 18:33N 47°58' W 122°21'0 0.7
2014-Oct-17 18:11N 47°58' W 122°21'0 0.6
2014-Oct-17 17:33N 47°58' W 122°20'0 0.2
2014-Oct-17 16:33N 47°58' W 122°21'1 2.1
2014-Oct-17 16:05N 47°57' W 122°20'1 1.7
2014-Oct-17 15:33N 47°58' W 122°21'0 0.1
2014-Oct-17 14:33N 47°58' W 122°21'0 0.1
2014-Oct-17 13:33N 47°58' W 122°21'0 0.3
2014-Oct-17 12:33N 47°58' W 122°20'1 0.6
2014-Oct-17 11:33N 47°59' W 122°21'0 0.0
2014-Oct-17 10:33N 47°59' W 122°21'0 0.0
2014-Oct-17 09:33N 47°59' W 122°21'0 0.0
2014-Oct-17 08:33N 47°59' W 122°21'0 0.0
2014-Oct-17 06:57N 47°59' W 122°21'0 0.1
2014-Oct-17 06:31N 47°59' W 122°21'0 0.0
2014-Oct-17 05:33N 47°59' W 122°21'0 0.0
2014-Oct-17 04:33N 47°59' W 122°21'0 0.5
2014-Oct-17 04:29N 47°59' W 122°21'0 0.5
2014-Oct-17 03:33N 47°58' W 122°21'0 0.0
2014-Oct-17 02:33N 47°58' W 122°21'0 0.1
2014-Oct-17 01:33N 47°58' W 122°20'1 1.6
2014-Oct-17 01:09N 47°58' W 122°20'1 1.0
2014-Oct-17 00:33N 47°58' W 122°20'0 1.1
2014-Oct-17 00:09N 47°58' W 122°20'1 1.0
2014-Oct-16 23:33N 47°58' W 122°21'0 0.6
2014-Oct-16 23:13N 47°58' W 122°21'0 0.4
2014-Oct-16 22:33N 47°58' W 122°21'0 0.4
2014-Oct-16 22:14N 47°58' W 122°21'0 0.4
2014-Oct-16 21:33N 47°58' W 122°21'1 1.7
2014-Oct-16 21:08N 47°58' W 122°20'1 1.2
2014-Oct-16 20:33N 47°58' W 122°21'0 0.1
2014-Oct-16 19:33N 47°58' W 122°21'0 9.0
2014-Oct-16 19:33N 47°58' W 122°21'0 0.4
2014-Oct-16 18:33N 47°58' W 122°20'0 0.3
2014-Oct-16 17:32N 47°58' W 122°21'0 0.3
2014-Oct-16 16:33N 47°58' W 122°20'013.6
2014-Oct-16 16:33N 47°58' W 122°20'0 0.1
2014-Oct-16 15:34N 47°58' W 122°20'0 0.1
2014-Oct-16 14:33N 47°58' W 122°21'0 0.0
2014-Oct-16 13:33N 47°58' W 122°21'010.9
2014-Oct-16 13:32N 47°58' W 122°21'0 0.4
2014-Oct-16 12:33N 47°58' W 122°20'015.2
2014-Oct-16 12:32N 47°58' W 122°21'0 0.2
2014-Oct-16 11:33N 47°58' W 122°21'0 0.0
2014-Oct-16 10:20N 47°58' W 122°21'0 0.0
2014-Oct-16 08:29N 47°58' W 122°21'1 2.8
2014-Oct-16 08:12N 47°58' W 122°20'0 0.2
2014-Oct-16 07:33N 47°58' W 122°20'1 1.7
2014-Oct-16 06:41N 47°57' W 122°18'212.5
2014-Oct-16 06:33N 47°58' W 122°21'0 1.1
2014-Oct-16 06:07N 47°58' W 122°20'0 0.8
2014-Oct-16 05:33N 47°58' W 122°20'0 0.2
2014-Oct-16 04:33N 47°58' W 122°20'0 0.6
2014-Oct-16 04:07N 47°58' W 122°20'1 1.1
2014-Oct-16 03:33N 47°58' W 122°21'1 1.7
2014-Oct-16 03:06N 47°58' W 122°20'1 1.1
2014-Oct-16 02:33N 47°58' W 122°20'0 1.2
2014-Oct-16 02:11N 47°58' W 122°21'0 0.3
2014-Oct-16 01:33N 47°58' W 122°21'0 0.6
2014-Oct-16 01:12N 47°58' W 122°21'0 0.3
2014-Oct-16 00:33N 47°58' W 122°21'1 2.2
2014-Oct-16 00:07N 47°58' W 122°20'1 1.5
2014-Oct-15 23:33N 47°58' W 122°21'0 8.9
2014-Oct-15 23:31N 47°58' W 122°21'1 0.5
2014-Oct-15 22:34N 47°58' W 122°20'011.3
2014-Oct-15 22:31N 47°58' W 122°21'0 0.2
2014-Oct-15 21:33N 47°58' W 122°21'1 0.6
2014-Oct-15 20:36N 47°58' W 122°20'112.8
2014-Oct-15 20:33N 47°58' W 122°21'0 8.0
2014-Oct-15 20:31N 47°58' W 122°21'0 0.4
2014-Oct-15 19:33N 47°58' W 122°20'011.1
2014-Oct-15 19:31N 47°58' W 122°21'0 0.4
2014-Oct-15 18:33N 47°58' W 122°20'0 1.4
2014-Oct-15 18:15N 47°58' W 122°21'0 0.7
2014-Oct-15 17:33N 47°58' W 122°20'0 0.1
2014-Oct-15 16:33N 47°58' W 122°20'0 3.0
2014-Oct-15 16:25N 47°58' W 122°21'0 0.4
2014-Oct-15 15:33N 47°58' W 122°21'0 0.0
2014-Oct-15 14:33N 47°58' W 122°21'0 0.5
2014-Oct-15 14:10N 47°58' W 122°21'0 0.3
2014-Oct-15 13:33N 47°58' W 122°21'2 2.4
2014-Oct-15 12:44N 47°57' W 122°18'210.8
2014-Oct-15 12:33N 47°58' W 122°20'1 0.5
2014-Oct-15 11:33N 47°59' W 122°21'0 0.0
2014-Oct-15 11:19N 47°59' W 122°21'0 0.0
2014-Oct-15 10:29N 47°59' W 122°21'0 0.0
2014-Oct-15 07:54N 47°59' W 122°21'0 0.1
2014-Oct-15 07:26N 47°59' W 122°21'0 0.1
2014-Oct-15 06:43N 47°59' W 122°21'0 0.2
2014-Oct-15 06:28N 47°59' W 122°21'0 0.0
2014-Oct-15 06:28N 47°59' W 122°21'0 0.1
2014-Oct-15 05:54N 47°59' W 122°21'0 0.0
2014-Oct-15 05:33N 47°59' W 122°21'0 0.0
2014-Oct-15 04:29N 47°59' W 122°21'0 0.3
2014-Oct-15 03:33N 47°58' W 122°21'011.3
2014-Oct-15 03:33N 47°58' W 122°21'0 0.4
2014-Oct-15 02:33N 47°58' W 122°20'0 0.3
2014-Oct-15 01:33N 47°58' W 122°21'0 0.1
2014-Oct-15 01:12N 47°58' W 122°21'0 0.2
2014-Oct-15 00:33N 47°58' W 122°21'1 2.1
2014-Oct-15 00:08N 47°58' W 122°20'1 0.9
2014-Oct-14 23:33N 47°58' W 122°20'012.9
2014-Oct-14 23:33N 47°58' W 122°21'0 0.2
2014-Oct-14 22:33N 47°58' W 122°21'0 0.0
2014-Oct-14 21:33N 47°58' W 122°21'0 0.0
2014-Oct-14 20:31N 47°58' W 122°21'0 0.2
2014-Oct-14 19:33N 47°58' W 122°20'0 0.1
2014-Oct-14 18:33N 47°58' W 122°20'0 0.4
2014-Oct-14 17:33N 47°58' W 122°21'0 0.4
2014-Oct-14 16:33N 47°58' W 122°20'0 0.3
2014-Oct-14 15:33N 47°58' W 122°21'0 0.0
2014-Oct-14 14:33N 47°58' W 122°21'0 0.1
2014-Oct-14 13:33N 47°58' W 122°21'0 0.4
2014-Oct-14 12:34N 47°58' W 122°20'018.3
2014-Oct-14 12:33N 47°58' W 122°20'0 0.4
2014-Oct-14 12:14N 47°58' W 122°21'0 0.7
2014-Oct-14 11:33N 47°59' W 122°21'0 0.0
2014-Oct-14 10:29N 47°59' W 122°21'0 0.0
2014-Oct-14 09:33N 47°59' W 122°21'0 0.0
2014-Oct-14 08:31N 47°59' W 122°21'0 0.0
2014-Oct-14 07:33N 47°59' W 122°21'0 0.0
2014-Oct-14 06:34N 47°59' W 122°21'0 0.1
2014-Oct-14 06:14N 47°59' W 122°21'0 0.0
2014-Oct-14 06:03N 47°59' W 122°21'0 0.1
2014-Oct-14 05:28N 47°59' W 122°21'0 0.0
2014-Oct-14 04:32N 47°59' W 122°21'0 0.4
2014-Oct-14 03:33N 47°58' W 122°21'0 0.0
2014-Oct-14 03:33N 47°58' W 122°21'0 0.0
2014-Oct-14 02:33N 47°58' W 122°21'0 0.1
2014-Oct-14 01:33N 47°58' W 122°20'0 0.0
2014-Oct-14 00:33N 47°58' W 122°20'010.6
2014-Oct-14 00:33N 47°58' W 122°20'0 0.0
2014-Oct-13 23:33N 47°58' W 122°20'0 3.2
2014-Oct-13 23:33N 47°58' W 122°20'0 0.1
2014-Oct-13 22:33N 47°58' W 122°21'0 0.4
2014-Oct-13 22:11N 47°58' W 122°21'0 0.2
2014-Oct-13 21:33N 47°58' W 122°20'0 0.7
2014-Oct-13 21:11N 47°58' W 122°21'0 0.4
2014-Oct-13 20:33N 47°58' W 122°20'0 9.6
2014-Oct-13 20:31N 47°58' W 122°21'0 0.5
2014-Oct-13 19:34N 47°58' W 122°20'0 0.9
2014-Oct-13 19:11N 47°58' W 122°21'0 0.8
2014-Oct-13 18:33N 47°58' W 122°20'1 1.4
2014-Oct-13 18:11N 47°58' W 122°21'0 0.4
2014-Oct-13 17:33N 47°58' W 122°21'0 0.0
2014-Oct-13 16:35N 47°58' W 122°21'011.5
2014-Oct-13 16:33N 47°58' W 122°21'0 1.5
2014-Oct-13 16:14N 47°58' W 122°20'0 0.5
2014-Oct-13 15:33N 47°58' W 122°21'0 0.2
2014-Oct-13 14:33N 47°58' W 122°21'0 0.1
2014-Oct-13 13:33N 47°58' W 122°20'0 0.4
2014-Oct-13 13:09N 47°58' W 122°21'0 0.2
2014-Oct-13 12:33N 47°58' W 122°20'0 0.9
2014-Oct-13 12:14N 47°58' W 122°21'0 0.3
2014-Oct-13 11:33N 47°58' W 122°21'0 0.0
2014-Oct-13 10:19N 47°58' W 122°21'0 0.0
2014-Oct-13 09:58N 47°58' W 122°21'0 0.0
2014-Oct-13 09:28N 47°58' W 122°21'0 0.0
2014-Oct-13 08:32N 47°58' W 122°21'0 0.5
2014-Oct-13 07:33N 47°58' W 122°20'0 0.0
2014-Oct-13 06:33N 47°58' W 122°20'0 0.0
2014-Oct-13 06:33N 47°58' W 122°20'2 2.5
2014-Oct-13 05:48N 47°57' W 122°18'2 8.1
2014-Oct-13 05:33N 47°58' W 122°21'0 0.5
2014-Oct-13 04:33N 47°58' W 122°20'0 0.3
2014-Oct-13 03:34N 47°58' W 122°20'0 0.0
2014-Oct-13 02:33N 47°58' W 122°20'0 0.2
2014-Oct-13 01:33N 47°58' W 122°21'0 0.1
2014-Oct-13 00:33N 47°58' W 122°21'0 0.5
2014-Oct-12 23:35N 47°58' W 122°20'112.7
2014-Oct-12 23:32N 47°58' W 122°21'0 0.0
2014-Oct-12 22:33N 47°58' W 122°21'0 0.1
2014-Oct-12 21:33N 47°58' W 122°21'0 0.4
2014-Oct-12 20:33N 47°58' W 122°20'0 0.8
2014-Oct-12 20:08N 47°58' W 122°21'0 0.2
2014-Oct-12 19:33N 47°58' W 122°21'0 0.8
2014-Oct-12 19:13N 47°58' W 122°21'1 0.9
2014-Oct-12 18:33N 47°58' W 122°20'0 0.8
2014-Oct-12 18:07N 47°58' W 122°20'0 0.6
2014-Oct-12 17:33N 47°58' W 122°20'011.9
2014-Oct-12 17:32N 47°58' W 122°20'0 0.4
2014-Oct-12 16:33N 47°58' W 122°20'1 2.4
2014-Oct-12 15:57N 47°57' W 122°18'2 5.3
2014-Oct-12 15:33N 47°58' W 122°21'0 8.7
2014-Oct-12 15:32N 47°58' W 122°21'1 0.6
2014-Oct-12 14:33N 47°58' W 122°20'115.0
2014-Oct-12 14:31N 47°58' W 122°21'0 0.2
2014-Oct-12 13:33N 47°58' W 122°21'2 2.1
2014-Oct-12 12:41N 47°57' W 122°18'214.8
2014-Oct-12 12:33N 47°58' W 122°21'0 0.1
2014-Oct-12 11:16N 47°58' W 122°21'0 0.0
2014-Oct-12 10:24N 47°58' W 122°21'0 0.0
2014-Oct-12 09:21N 47°58' W 122°21'0 0.1
2014-Oct-12 09:14N 47°58' W 122°21'0 0.0
2014-Oct-12 08:33N 47°58' W 122°21'1 1.6
2014-Oct-12 08:14N 47°58' W 122°20'0 0.3
2014-Oct-12 07:33N 47°58' W 122°21'0 0.1
2014-Oct-12 06:33N 47°58' W 122°21'0 0.1
2014-Oct-12 05:33N 47°58' W 122°21'0 0.1
2014-Oct-12 04:32N 47°58' W 122°21'0 0.6
2014-Oct-12 04:09N 47°58' W 122°20'0 0.6
2014-Oct-12 03:33N 47°58' W 122°21'0 0.1
2014-Oct-12 02:33N 47°58' W 122°21'  

Dump ship's entire track history